sensor_id;sensor_type;location;lat;lon;timestamp;P1;durP1;ratioP1;P2;durP2;ratioP2
59193;SDS011;44967;48.598;15.650;2022-09-27T00:00:04;4.07;;;2.75;;
59193;SDS011;44967;48.598;15.650;2022-09-27T00:02:31;3.55;;;2.35;;
59193;SDS011;44967;48.598;15.650;2022-09-27T00:04:57;3.33;;;2.85;;
59193;SDS011;44967;48.598;15.650;2022-09-27T00:07:23;4.72;;;2.78;;
59193;SDS011;44967;48.598;15.650;2022-09-27T00:09:48;3.50;;;2.65;;
59193;SDS011;44967;48.598;15.650;2022-09-27T00:12:14;3.65;;;2.35;;
59193;SDS011;44967;48.598;15.650;2022-09-27T00:14:40;2.95;;;2.65;;
59193;SDS011;44967;48.598;15.650;2022-09-27T00:17:06;3.78;;;2.88;;
59193;SDS011;44967;48.598;15.650;2022-09-27T00:19:31;3.40;;;2.65;;
59193;SDS011;44967;48.598;15.650;2022-09-27T00:21:57;6.93;;;2.97;;
59193;SDS011;44967;48.598;15.650;2022-09-27T00:24:23;4.40;;;3.42;;
59193;SDS011;44967;48.598;15.650;2022-09-27T00:26:49;4.80;;;3.45;;
59193;SDS011;44967;48.598;15.650;2022-09-27T00:29:16;2.78;;;2.47;;
59193;SDS011;44967;48.598;15.650;2022-09-27T00:31:43;4.80;;;2.72;;
59193;SDS011;44967;48.598;15.650;2022-09-27T00:34:10;3.00;;;2.60;;
59193;SDS011;44967;48.598;15.650;2022-09-27T00:39:10;4.82;;;3.22;;
59193;SDS011;44967;48.598;15.650;2022-09-27T00:41:35;4.45;;;3.08;;
59193;SDS011;44967;48.598;15.650;2022-09-27T00:44:53;5.22;;;3.13;;
59193;SDS011;44967;48.598;15.650;2022-09-27T00:47:05;2.97;;;2.47;;
59193;SDS011;44967;48.598;15.650;2022-09-27T00:49:45;5.30;;;3.45;;
59193;SDS011;44967;48.598;15.650;2022-09-27T00:52:19;7.10;;;2.88;;
59193;SDS011;44967;48.598;15.650;2022-09-27T00:54:59;6.38;;;3.28;;
59193;SDS011;44967;48.598;15.650;2022-09-27T00:57:30;3.28;;;2.95;;
59193;SDS011;44967;48.598;15.650;2022-09-27T01:00:00;3.00;;;2.70;;
59193;SDS011;44967;48.598;15.650;2022-09-27T01:02:28;3.55;;;3.10;;
59193;SDS011;44967;48.598;15.650;2022-09-27T01:04:55;5.35;;;2.83;;
59193;SDS011;44967;48.598;15.650;2022-09-27T01:07:21;3.85;;;2.75;;
59193;SDS011;44967;48.598;15.650;2022-09-27T01:09:47;4.18;;;2.58;;
59193;SDS011;44967;48.598;15.650;2022-09-27T01:17:27;4.25;;;3.85;;
59193;SDS011;44967;48.598;15.650;2022-09-27T01:31:31;4.18;;;3.33;;
59193;SDS011;44967;48.598;15.650;2022-09-27T01:42:18;5.15;;;3.45;;
59193;SDS011;44967;48.598;15.650;2022-09-27T01:44:51;4.17;;;3.37;;
59193;SDS011;44967;48.598;15.650;2022-09-27T01:50:25;5.28;;;3.70;;
59193;SDS011;44967;48.598;15.650;2022-09-27T01:53:04;3.28;;;2.97;;
59193;SDS011;44967;48.598;15.650;2022-09-27T01:55:36;4.70;;;3.53;;
59193;SDS011;44967;48.598;15.650;2022-09-27T01:58:09;5.45;;;3.65;;
59193;SDS011;44967;48.598;15.650;2022-09-27T02:03:07;4.15;;;3.10;;
59193;SDS011;44967;48.598;15.650;2022-09-27T02:05:43;5.68;;;3.25;;
59193;SDS011;44967;48.598;15.650;2022-09-27T02:11:09;6.60;;;4.00;;
59193;SDS011;44967;48.598;15.650;2022-09-27T02:13:43;6.40;;;4.72;;
59193;SDS011;44967;48.598;15.650;2022-09-27T02:21:59;4.47;;;3.30;;
59193;SDS011;44967;48.598;15.650;2022-09-27T02:24:34;5.70;;;3.53;;
59193;SDS011;44967;48.598;15.650;2022-09-27T02:27:08;5.10;;;3.28;;
59193;SDS011;44967;48.598;15.650;2022-09-27T02:29:42;5.13;;;3.85;;
59193;SDS011;44967;48.598;15.650;2022-09-27T02:32:12;5.40;;;4.00;;
59193;SDS011;44967;48.598;15.650;2022-09-27T02:34:38;4.35;;;3.53;;
59193;SDS011;44967;48.598;15.650;2022-09-27T02:37:06;9.50;;;4.40;;
59193;SDS011;44967;48.598;15.650;2022-09-27T02:39:31;5.03;;;3.75;;
59193;SDS011;44967;48.598;15.650;2022-09-27T02:41:57;6.78;;;4.05;;
59193;SDS011;44967;48.598;15.650;2022-09-27T02:44:24;5.25;;;3.92;;
59193;SDS011;44967;48.598;15.650;2022-09-27T02:47:03;8.18;;;3.53;;
59193;SDS011;44967;48.598;15.650;2022-09-27T02:49:42;8.48;;;3.85;;
59193;SDS011;44967;48.598;15.650;2022-09-27T02:57:26;4.30;;;3.33;;
59193;SDS011;44967;48.598;15.650;2022-09-27T03:00:05;4.00;;;3.35;;
59193;SDS011;44967;48.598;15.650;2022-09-27T03:05:20;5.97;;;4.07;;
59193;SDS011;44967;48.598;15.650;2022-09-27T03:07:49;5.97;;;3.88;;
59193;SDS011;44967;48.598;15.650;2022-09-27T03:10:16;3.72;;;3.20;;
59193;SDS011;44967;48.598;15.650;2022-09-27T03:12:46;6.07;;;3.58;;
59193;SDS011;44967;48.598;15.650;2022-09-27T03:15:13;5.72;;;3.60;;
59193;SDS011;44967;48.598;15.650;2022-09-27T03:17:38;5.88;;;3.13;;
59193;SDS011;44967;48.598;15.650;2022-09-27T03:20:04;4.00;;;3.10;;
59193;SDS011;44967;48.598;15.650;2022-09-27T03:22:30;5.18;;;3.25;;
59193;SDS011;44967;48.598;15.650;2022-09-27T03:24:56;7.50;;;2.90;;
59193;SDS011;44967;48.598;15.650;2022-09-27T03:27:22;5.78;;;3.15;;
59193;SDS011;44967;48.598;15.650;2022-09-27T03:29:48;3.60;;;2.88;;
59193;SDS011;44967;48.598;15.650;2022-09-27T03:32:14;3.42;;;3.13;;
59193;SDS011;44967;48.598;15.650;2022-09-27T03:34:39;2.97;;;2.67;;
59193;SDS011;44967;48.598;15.650;2022-09-27T03:37:05;2.85;;;2.58;;
59193;SDS011;44967;48.598;15.650;2022-09-27T03:39:32;3.72;;;2.63;;
59193;SDS011;44967;48.598;15.650;2022-09-27T03:41:58;4.53;;;3.10;;
59193;SDS011;44967;48.598;15.650;2022-09-27T03:44:24;3.38;;;3.08;;
59193;SDS011;44967;48.598;15.650;2022-09-27T03:46:50;4.07;;;3.50;;
59193;SDS011;44967;48.598;15.650;2022-09-27T03:49:15;4.00;;;3.60;;
59193;SDS011;44967;48.598;15.650;2022-09-27T03:51:41;5.18;;;3.88;;
59193;SDS011;44967;48.598;15.650;2022-09-27T03:54:08;5.13;;;3.38;;
59193;SDS011;44967;48.598;15.650;2022-09-27T03:56:34;4.28;;;3.42;;
59193;SDS011;44967;48.598;15.650;2022-09-27T03:59:00;4.22;;;3.75;;
59193;SDS011;44967;48.598;15.650;2022-09-27T04:01:25;5.63;;;3.15;;
59193;SDS011;44967;48.598;15.650;2022-09-27T04:03:52;3.40;;;3.10;;
59193;SDS011;44967;48.598;15.650;2022-09-27T04:06:18;3.83;;;3.38;;
59193;SDS011;44967;48.598;15.650;2022-09-27T04:08:44;4.18;;;3.20;;
59193;SDS011;44967;48.598;15.650;2022-09-27T04:11:11;4.60;;;3.33;;
59193;SDS011;44967;48.598;15.650;2022-09-27T04:13:38;3.70;;;3.08;;
59193;SDS011;44967;48.598;15.650;2022-09-27T04:16:03;3.50;;;3.20;;
59193;SDS011;44967;48.598;15.650;2022-09-27T04:18:29;3.60;;;3.28;;
59193;SDS011;44967;48.598;15.650;2022-09-27T04:20:55;3.88;;;2.92;;
59193;SDS011;44967;48.598;15.650;2022-09-27T04:23:21;3.25;;;2.80;;
59193;SDS011;44967;48.598;15.650;2022-09-27T04:25:48;4.05;;;3.40;;
59193;SDS011;44967;48.598;15.650;2022-09-27T04:28:14;6.25;;;5.28;;
59193;SDS011;44967;48.598;15.650;2022-09-27T04:30:40;8.45;;;5.53;;
59193;SDS011;44967;48.598;15.650;2022-09-27T04:33:06;8.07;;;5.75;;
59193;SDS011;44967;48.598;15.650;2022-09-27T04:35:31;7.07;;;5.75;;
59193;SDS011;44967;48.598;15.650;2022-09-27T04:38:15;7.80;;;4.97;;
59193;SDS011;44967;48.598;15.650;2022-09-27T04:40:44;8.38;;;5.10;;
59193;SDS011;44967;48.598;15.650;2022-09-27T04:43:10;9.63;;;5.35;;
59193;SDS011;44967;48.598;15.650;2022-09-27T04:45:36;5.93;;;5.07;;
59193;SDS011;44967;48.598;15.650;2022-09-27T04:48:02;7.63;;;5.43;;
59193;SDS011;44967;48.598;15.650;2022-09-27T04:50:27;6.38;;;5.05;;
59193;SDS011;44967;48.598;15.650;2022-09-27T04:52:53;6.15;;;5.07;;
59193;SDS011;44967;48.598;15.650;2022-09-27T04:55:19;6.07;;;4.25;;
59193;SDS011;44967;48.598;15.650;2022-09-27T04:57:46;8.23;;;5.45;;
59193;SDS011;44967;48.598;15.650;2022-09-27T05:00:12;7.75;;;4.35;;
59193;SDS011;44967;48.598;15.650;2022-09-27T05:02:39;5.18;;;4.45;;
59193;SDS011;44967;48.598;15.650;2022-09-27T05:05:07;5.60;;;4.20;;
59193;SDS011;44967;48.598;15.650;2022-09-27T05:07:34;6.47;;;4.93;;
59193;SDS011;44967;48.598;15.650;2022-09-27T05:10:00;5.13;;;4.00;;
59193;SDS011;44967;48.598;15.650;2022-09-27T05:12:26;5.72;;;4.10;;
59193;SDS011;44967;48.598;15.650;2022-09-27T05:14:52;4.47;;;3.72;;
59193;SDS011;44967;48.598;15.650;2022-09-27T05:17:18;4.85;;;3.60;;
59193;SDS011;44967;48.598;15.650;2022-09-27T05:19:45;4.88;;;3.83;;
59193;SDS011;44967;48.598;15.650;2022-09-27T05:22:10;4.15;;;3.50;;
59193;SDS011;44967;48.598;15.650;2022-09-27T05:24:36;4.45;;;4.05;;
59193;SDS011;44967;48.598;15.650;2022-09-27T05:27:02;4.90;;;4.32;;
59193;SDS011;44967;48.598;15.650;2022-09-27T05:29:28;5.80;;;4.65;;
59193;SDS011;44967;48.598;15.650;2022-09-27T05:31:54;4.95;;;4.30;;
59193;SDS011;44967;48.598;15.650;2022-09-27T05:34:19;5.25;;;4.20;;
59193;SDS011;44967;48.598;15.650;2022-09-27T05:36:46;3.67;;;3.13;;
59193;SDS011;44967;48.598;15.650;2022-09-27T05:39:12;6.50;;;3.75;;
59193;SDS011;44967;48.598;15.650;2022-09-27T05:41:38;4.95;;;3.30;;
59193;SDS011;44967;48.598;15.650;2022-09-27T05:44:04;5.60;;;4.25;;
59193;SDS011;44967;48.598;15.650;2022-09-27T05:46:30;6.85;;;3.80;;
59193;SDS011;44967;48.598;15.650;2022-09-27T05:48:55;4.32;;;3.70;;
59193;SDS011;44967;48.598;15.650;2022-09-27T05:51:21;3.58;;;3.10;;
59193;SDS011;44967;48.598;15.650;2022-09-27T05:53:47;4.53;;;3.22;;
59193;SDS011;44967;48.598;15.650;2022-09-27T05:56:12;4.13;;;3.58;;
59193;SDS011;44967;48.598;15.650;2022-09-27T05:58:38;4.10;;;3.70;;
59193;SDS011;44967;48.598;15.650;2022-09-27T06:01:06;5.60;;;3.58;;
59193;SDS011;44967;48.598;15.650;2022-09-27T06:03:33;4.70;;;3.60;;
59193;SDS011;44967;48.598;15.650;2022-09-27T06:06:02;6.53;;;4.05;;
59193;SDS011;44967;48.598;15.650;2022-09-27T06:08:34;4.50;;;3.58;;
59193;SDS011;44967;48.598;15.650;2022-09-27T06:11:04;4.80;;;3.45;;
59193;SDS011;44967;48.598;15.650;2022-09-27T06:13:35;4.20;;;3.17;;
59193;SDS011;44967;48.598;15.650;2022-09-27T06:16:02;4.72;;;4.22;;
59193;SDS011;44967;48.598;15.650;2022-09-27T06:18:28;5.07;;;3.78;;
59193;SDS011;44967;48.598;15.650;2022-09-27T06:20:54;8.00;;;4.68;;
59193;SDS011;44967;48.598;15.650;2022-09-27T06:23:21;6.10;;;4.50;;
59193;SDS011;44967;48.598;15.650;2022-09-27T06:25:48;6.28;;;4.70;;
59193;SDS011;44967;48.598;15.650;2022-09-27T06:28:16;4.32;;;3.92;;
59193;SDS011;44967;48.598;15.650;2022-09-27T06:30:44;3.92;;;3.47;;
59193;SDS011;44967;48.598;15.650;2022-09-27T06:33:12;5.40;;;3.22;;
59193;SDS011;44967;48.598;15.650;2022-09-27T06:35:39;5.63;;;3.80;;
59193;SDS011;44967;48.598;15.650;2022-09-27T06:38:07;5.25;;;4.03;;
59193;SDS011;44967;48.598;15.650;2022-09-27T06:40:35;6.70;;;3.63;;
59193;SDS011;44967;48.598;15.650;2022-09-27T06:43:07;8.88;;;4.60;;
59193;SDS011;44967;48.598;15.650;2022-09-27T06:45:35;8.10;;;4.38;;
59193;SDS011;44967;48.598;15.650;2022-09-27T06:48:02;6.22;;;4.47;;
59193;SDS011;44967;48.598;15.650;2022-09-27T06:50:29;6.82;;;4.18;;
59193;SDS011;44967;48.598;15.650;2022-09-27T06:53:00;5.18;;;4.03;;
59193;SDS011;44967;48.598;15.650;2022-09-27T06:55:26;7.47;;;3.50;;
59193;SDS011;44967;48.598;15.650;2022-09-27T06:57:55;8.50;;;5.57;;
59193;SDS011;44967;48.598;15.650;2022-09-27T07:00:40;7.55;;;5.25;;
59193;SDS011;44967;48.598;15.650;2022-09-27T07:03:08;9.90;;;8.10;;
59193;SDS011;44967;48.598;15.650;2022-09-27T07:05:38;13.45;;;10.40;;
59193;SDS011;44967;48.598;15.650;2022-09-27T07:08:07;11.48;;;7.78;;
59193;SDS011;44967;48.598;15.650;2022-09-27T07:10:36;7.57;;;6.78;;
59193;SDS011;44967;48.598;15.650;2022-09-27T07:13:04;9.65;;;7.10;;
59193;SDS011;44967;48.598;15.650;2022-09-27T07:15:32;10.32;;;6.32;;
59193;SDS011;44967;48.598;15.650;2022-09-27T07:18:01;8.15;;;6.35;;
59193;SDS011;44967;48.598;15.650;2022-09-27T07:20:28;9.15;;;6.72;;
59193;SDS011;44967;48.598;15.650;2022-09-27T07:22:55;8.68;;;7.30;;
59193;SDS011;44967;48.598;15.650;2022-09-27T07:25:21;7.75;;;6.57;;
59193;SDS011;44967;48.598;15.650;2022-09-27T07:27:47;8.15;;;6.65;;
59193;SDS011;44967;48.598;15.650;2022-09-27T07:30:13;8.23;;;6.70;;
59193;SDS011;44967;48.598;15.650;2022-09-27T07:32:41;8.63;;;6.75;;
59193;SDS011;44967;48.598;15.650;2022-09-27T07:35:08;11.18;;;7.70;;
59193;SDS011;44967;48.598;15.650;2022-09-27T07:37:35;9.25;;;7.32;;
59193;SDS011;44967;48.598;15.650;2022-09-27T07:40:02;9.18;;;7.05;;
59193;SDS011;44967;48.598;15.650;2022-09-27T07:42:31;8.80;;;7.13;;
59193;SDS011;44967;48.598;15.650;2022-09-27T07:44:58;7.57;;;6.25;;
59193;SDS011;44967;48.598;15.650;2022-09-27T07:47:24;8.05;;;5.95;;
59193;SDS011;44967;48.598;15.650;2022-09-27T07:49:50;7.75;;;5.93;;
59193;SDS011;44967;48.598;15.650;2022-09-27T07:52:17;8.30;;;6.50;;
59193;SDS011;44967;48.598;15.650;2022-09-27T07:54:44;7.50;;;5.45;;
59193;SDS011;44967;48.598;15.650;2022-09-27T07:57:11;6.00;;;5.00;;
59193;SDS011;44967;48.598;15.650;2022-09-27T07:59:37;6.25;;;4.57;;
59193;SDS011;44967;48.598;15.650;2022-09-27T08:02:03;8.00;;;5.40;;
59193;SDS011;44967;48.598;15.650;2022-09-27T08:04:29;8.15;;;5.20;;
59193;SDS011;44967;48.598;15.650;2022-09-27T08:06:55;6.20;;;4.90;;
59193;SDS011;44967;48.598;15.650;2022-09-27T08:09:20;6.20;;;3.45;;
59193;SDS011;44967;48.598;15.650;2022-09-27T08:11:46;5.32;;;4.10;;
59193;SDS011;44967;48.598;15.650;2022-09-27T08:14:13;5.93;;;4.80;;
59193;SDS011;44967;48.598;15.650;2022-09-27T08:16:39;7.72;;;5.45;;
59193;SDS011;44967;48.598;15.650;2022-09-27T08:19:06;8.45;;;5.80;;
59193;SDS011;44967;48.598;15.650;2022-09-27T08:21:31;8.75;;;5.28;;
59193;SDS011;44967;48.598;15.650;2022-09-27T08:23:57;7.32;;;5.15;;
59193;SDS011;44967;48.598;15.650;2022-09-27T08:26:24;6.43;;;5.05;;
59193;SDS011;44967;48.598;15.650;2022-09-27T08:28:52;7.95;;;5.70;;
59193;SDS011;44967;48.598;15.650;2022-09-27T08:31:18;6.82;;;5.10;;
59193;SDS011;44967;48.598;15.650;2022-09-27T08:33:48;6.63;;;5.45;;
59193;SDS011;44967;48.598;15.650;2022-09-27T08:36:15;6.85;;;5.53;;
59193;SDS011;44967;48.598;15.650;2022-09-27T08:38:41;5.13;;;4.63;;
59193;SDS011;44967;48.598;15.650;2022-09-27T08:49:30;9.38;;;6.50;;
59193;SDS011;44967;48.598;15.650;2022-09-27T08:52:00;9.73;;;6.97;;
59193;SDS011;44967;48.598;15.650;2022-09-27T08:54:31;6.70;;;4.65;;
59193;SDS011;44967;48.598;15.650;2022-09-27T08:57:03;5.93;;;4.40;;
59193;SDS011;44967;48.598;15.650;2022-09-27T08:59:38;6.90;;;5.82;;
59193;SDS011;44967;48.598;15.650;2022-09-27T09:02:16;5.50;;;4.60;;
59193;SDS011;44967;48.598;15.650;2022-09-27T09:04:45;5.20;;;3.53;;
59193;SDS011;44967;48.598;15.650;2022-09-27T09:16:17;4.15;;;3.17;;
59193;SDS011;44967;48.598;15.650;2022-09-27T09:22:08;4.03;;;3.10;;
59193;SDS011;44967;48.598;15.650;2022-09-27T09:25:02;3.63;;;3.28;;
59193;SDS011;44967;48.598;15.650;2022-09-27T09:30:53;4.43;;;2.60;;
59193;SDS011;44967;48.598;15.650;2022-09-27T09:33:25;2.63;;;2.10;;
59193;SDS011;44967;48.598;15.650;2022-09-27T09:36:05;3.17;;;2.10;;
59193;SDS011;44967;48.598;15.650;2022-09-27T09:38:44;2.00;;;1.80;;
59193;SDS011;44967;48.598;15.650;2022-09-27T09:43:50;2.05;;;1.85;;
59193;SDS011;44967;48.598;15.650;2022-09-27T09:46:24;2.65;;;1.77;;
59193;SDS011;44967;48.598;15.650;2022-09-27T09:48:59;1.95;;;1.13;;
59193;SDS011;44967;48.598;15.650;2022-09-27T09:51:33;2.35;;;1.80;;
59193;SDS011;44967;48.598;15.650;2022-09-27T09:54:07;2.42;;;1.88;;
59193;SDS011;44967;48.598;15.650;2022-09-27T09:56:39;1.92;;;1.58;;
59193;SDS011;44967;48.598;15.650;2022-09-27T09:59:16;1.88;;;1.50;;
59193;SDS011;44967;48.598;15.650;2022-09-27T10:01:55;1.85;;;1.25;;
59193;SDS011;44967;48.598;15.650;2022-09-27T10:04:32;1.27;;;1.17;;
59193;SDS011;44967;48.598;15.650;2022-09-27T10:06:58;1.45;;;1.35;;
59193;SDS011;44967;48.598;15.650;2022-09-27T10:09:26;1.90;;;1.17;;
59193;SDS011;44967;48.598;15.650;2022-09-27T10:11:53;0.90;;;0.80;;
59193;SDS011;44967;48.598;15.650;2022-09-27T10:14:19;1.85;;;1.27;;
59193;SDS011;44967;48.598;15.650;2022-09-27T10:16:46;2.47;;;1.25;;
59193;SDS011;44967;48.598;15.650;2022-09-27T10:19:22;1.50;;;1.10;;
59193;SDS011;44967;48.598;15.650;2022-09-27T10:21:55;1.90;;;0.90;;
59193;SDS011;44967;48.598;15.650;2022-09-27T10:24:25;1.30;;;1.15;;
59193;SDS011;44967;48.598;15.650;2022-09-27T10:26:52;1.27;;;1.13;;
59193;SDS011;44967;48.598;15.650;2022-09-27T10:29:32;1.13;;;0.98;;
59193;SDS011;44967;48.598;15.650;2022-09-27T10:32:01;1.35;;;0.73;;
59193;SDS011;44967;48.598;15.650;2022-09-27T10:34:33;1.52;;;1.02;;
59193;SDS011;44967;48.598;15.650;2022-09-27T10:39:37;1.13;;;1.02;;
59193;SDS011;44967;48.598;15.650;2022-09-27T10:44:55;0.70;;;0.68;;
59193;SDS011;44967;48.598;15.650;2022-09-27T10:47:22;0.95;;;0.70;;
59193;SDS011;44967;48.598;15.650;2022-09-27T10:49:51;0.73;;;0.68;;
59193;SDS011;44967;48.598;15.650;2022-09-27T10:52:29;2.58;;;0.80;;
59193;SDS011;44967;48.598;15.650;2022-09-27T10:54:59;1.02;;;0.70;;
59193;SDS011;44967;48.598;15.650;2022-09-27T10:57:30;0.70;;;0.63;;
59193;SDS011;44967;48.598;15.650;2022-09-27T11:00:02;1.35;;;0.70;;
59193;SDS011;44967;48.598;15.650;2022-09-27T11:02:33;1.38;;;0.70;;
59193;SDS011;44967;48.598;15.650;2022-09-27T11:05:05;0.68;;;0.60;;
59193;SDS011;44967;48.598;15.650;2022-09-27T11:07:46;0.82;;;0.68;;
59193;SDS011;44967;48.598;15.650;2022-09-27T11:10:21;0.80;;;0.80;;
59193;SDS011;44967;48.598;15.650;2022-09-27T11:15:45;0.70;;;0.70;;
59193;SDS011;44967;48.598;15.650;2022-09-27T11:18:42;1.95;;;0.70;;
59193;SDS011;44967;48.598;15.650;2022-09-27T11:37:11;0.57;;;0.50;;
59193;SDS011;44967;48.598;15.650;2022-09-27T11:39:58;1.33;;;0.60;;
59193;SDS011;44967;48.598;15.650;2022-09-27T11:56:43;0.40;;;0.40;;
59193;SDS011;44967;48.598;15.650;2022-09-27T12:10:59;0.60;;;0.60;;
59193;SDS011;44967;48.598;15.650;2022-09-27T12:13:36;0.45;;;0.45;;
59193;SDS011;44967;48.598;15.650;2022-09-27T12:16:06;0.55;;;0.40;;
59193;SDS011;44967;48.598;15.650;2022-09-27T12:18:35;0.90;;;0.43;;
59193;SDS011;44967;48.598;15.650;2022-09-27T12:21:03;1.27;;;0.50;;
59193;SDS011;44967;48.598;15.650;2022-09-27T12:23:42;1.92;;;0.60;;
59193;SDS011;44967;48.598;15.650;2022-09-27T12:26:13;0.35;;;0.32;;
59193;SDS011;44967;48.598;15.650;2022-09-27T12:31:30;0.70;;;0.60;;
59193;SDS011;44967;48.598;15.650;2022-09-27T12:36:50;0.45;;;0.45;;
59193;SDS011;44967;48.598;15.650;2022-09-27T12:42:29;0.43;;;0.43;;
59193;SDS011;44967;48.598;15.650;2022-09-27T12:45:01;0.68;;;0.40;;
59193;SDS011;44967;48.598;15.650;2022-09-27T12:48:30;2.42;;;0.77;;
59193;SDS011;44967;48.598;15.650;2022-09-27T12:53:12;1.15;;;1.05;;
59193;SDS011;44967;48.598;15.650;2022-09-27T13:06:57;0.40;;;0.40;;
59193;SDS011;44967;48.598;15.650;2022-09-27T13:09:41;1.67;;;0.30;;
59193;SDS011;44967;48.598;15.650;2022-09-27T13:15:12;0.38;;;0.30;;
59193;SDS011;44967;48.598;15.650;2022-09-27T13:20:41;0.82;;;0.50;;
59193;SDS011;44967;48.598;15.650;2022-09-27T13:22:59;1.38;;;0.30;;
59193;SDS011;44967;48.598;15.650;2022-09-27T13:46:48;0.40;;;0.40;;
59193;SDS011;44967;48.598;15.650;2022-09-27T13:49:37;0.63;;;0.28;;
59193;SDS011;44967;48.598;15.650;2022-09-27T13:55:01;0.75;;;0.50;;
59193;SDS011;44967;48.598;15.650;2022-09-27T14:00:24;1.00;;;0.28;;
59193;SDS011;44967;48.598;15.650;2022-09-27T14:02:58;1.23;;;0.47;;
59193;SDS011;44967;48.598;15.650;2022-09-27T14:05:34;0.30;;;0.30;;
59193;SDS011;44967;48.598;15.650;2022-09-27T14:08:03;1.13;;;0.30;;
59193;SDS011;44967;48.598;15.650;2022-09-27T14:10:31;0.65;;;0.40;;
59193;SDS011;44967;48.598;15.650;2022-09-27T14:12:59;0.20;;;0.20;;
59193;SDS011;44967;48.598;15.650;2022-09-27T14:15:28;0.30;;;0.30;;
59193;SDS011;44967;48.598;15.650;2022-09-27T14:17:56;0.90;;;0.43;;
59193;SDS011;44967;48.598;15.650;2022-09-27T14:20:38;1.83;;;0.47;;
59193;SDS011;44967;48.598;15.650;2022-09-27T14:23:25;1.40;;;0.90;;
59193;SDS011;44967;48.598;15.650;2022-09-27T14:25:52;1.40;;;0.45;;
59193;SDS011;44967;48.598;15.650;2022-09-27T14:28:29;1.65;;;0.28;;
59193;SDS011;44967;48.598;15.650;2022-09-27T14:31:05;0.40;;;0.30;;
59193;SDS011;44967;48.598;15.650;2022-09-27T14:33:38;0.93;;;0.38;;
59193;SDS011;44967;48.598;15.650;2022-09-27T14:36:05;0.40;;;0.30;;
59193;SDS011;44967;48.598;15.650;2022-09-27T14:38:50;0.30;;;0.30;;
59193;SDS011;44967;48.598;15.650;2022-09-27T14:41:16;0.65;;;0.20;;
59193;SDS011;44967;48.598;15.650;2022-09-27T14:43:42;0.20;;;0.20;;
59193;SDS011;44967;48.598;15.650;2022-09-27T14:46:22;0.30;;;0.30;;
59193;SDS011;44967;48.598;15.650;2022-09-27T14:48:54;0.38;;;0.32;;
59193;SDS011;44967;48.598;15.650;2022-09-27T14:51:25;0.95;;;0.32;;
59193;SDS011;44967;48.598;15.650;2022-09-27T14:53:56;0.30;;;0.30;;
59193;SDS011;44967;48.598;15.650;2022-09-27T14:56:26;0.63;;;0.40;;
59193;SDS011;44967;48.598;15.650;2022-09-27T14:59:02;1.13;;;0.57;;
59193;SDS011;44967;48.598;15.650;2022-09-27T15:01:33;0.30;;;0.30;;
59193;SDS011;44967;48.598;15.650;2022-09-27T15:04:05;1.02;;;0.20;;
59193;SDS011;44967;48.598;15.650;2022-09-27T15:06:37;0.90;;;0.20;;
59193;SDS011;44967;48.598;15.650;2022-09-27T15:09:04;0.30;;;0.30;;
59193;SDS011;44967;48.598;15.650;2022-09-27T15:11:31;0.60;;;0.30;;
59193;SDS011;44967;48.598;15.650;2022-09-27T15:13:58;0.43;;;0.22;;
59193;SDS011;44967;48.598;15.650;2022-09-27T15:16:26;1.27;;;0.20;;
59193;SDS011;44967;48.598;15.650;2022-09-27T15:21:34;0.63;;;0.30;;
59193;SDS011;44967;48.598;15.650;2022-09-27T15:24:02;0.30;;;0.30;;
59193;SDS011;44967;48.598;15.650;2022-09-27T15:26:39;0.45;;;0.30;;
59193;SDS011;44967;48.598;15.650;2022-09-27T15:29:19;1.23;;;0.50;;
59193;SDS011;44967;48.598;15.650;2022-09-27T15:31:56;0.32;;;0.20;;
59193;SDS011;44967;48.598;15.650;2022-09-27T15:34:28;1.02;;;0.25;;
59193;SDS011;44967;48.598;15.650;2022-09-27T15:36:57;1.02;;;0.50;;
59193;SDS011;44967;48.598;15.650;2022-09-27T15:42:06;0.45;;;0.28;;
59193;SDS011;44967;48.598;15.650;2022-09-27T15:49:58;0.98;;;0.30;;
59193;SDS011;44967;48.598;15.650;2022-09-27T15:55:24;0.20;;;0.20;;
59193;SDS011;44967;48.598;15.650;2022-09-27T15:57:55;0.28;;;0.25;;
59193;SDS011;44967;48.598;15.650;2022-09-27T16:00:23;0.47;;;0.20;;
59193;SDS011;44967;48.598;15.650;2022-09-27T16:02:51;0.25;;;0.22;;
59193;SDS011;44967;48.598;15.650;2022-09-27T16:05:17;0.73;;;0.20;;
59193;SDS011;44967;48.598;15.650;2022-09-27T16:07:43;0.15;;;0.15;;
59193;SDS011;44967;48.598;15.650;2022-09-27T16:10:28;0.22;;;0.22;;
59193;SDS011;44967;48.598;15.650;2022-09-27T16:13:00;0.30;;;0.30;;
59193;SDS011;44967;48.598;15.650;2022-09-27T16:15:26;0.32;;;0.30;;
59193;SDS011;44967;48.598;15.650;2022-09-27T16:17:51;0.70;;;0.40;;
59193;SDS011;44967;48.598;15.650;2022-09-27T16:20:18;0.75;;;0.25;;
59193;SDS011;44967;48.598;15.650;2022-09-27T16:22:49;2.08;;;0.20;;
59193;SDS011;44967;48.598;15.650;2022-09-27T16:25:16;1.10;;;0.30;;
59193;SDS011;44967;48.598;15.650;2022-09-27T16:27:43;0.30;;;0.30;;
59193;SDS011;44967;48.598;15.650;2022-09-27T16:30:09;1.25;;;0.40;;
59193;SDS011;44967;48.598;15.650;2022-09-27T16:32:46;2.83;;;1.73;;
59193;SDS011;44967;48.598;15.650;2022-09-27T16:35:13;4.38;;;2.03;;
59193;SDS011;44967;48.598;15.650;2022-09-27T16:37:40;1.25;;;0.70;;
59193;SDS011;44967;48.598;15.650;2022-09-27T16:40:07;1.50;;;0.40;;
59193;SDS011;44967;48.598;15.650;2022-09-27T16:42:34;0.17;;;0.17;;
59193;SDS011;44967;48.598;15.650;2022-09-27T16:45:01;0.20;;;0.20;;
59193;SDS011;44967;48.598;15.650;2022-09-27T16:47:29;0.57;;;0.30;;
59193;SDS011;44967;48.598;15.650;2022-09-27T16:49:55;2.65;;;0.28;;
59193;SDS011;44967;48.598;15.650;2022-09-27T16:52:40;2.17;;;0.40;;
59193;SDS011;44967;48.598;15.650;2022-09-27T16:55:12;0.55;;;0.38;;
59193;SDS011;44967;48.598;15.650;2022-09-27T16:57:40;1.85;;;0.60;;
59193;SDS011;44967;48.598;15.650;2022-09-27T17:00:06;0.55;;;0.35;;
59193;SDS011;44967;48.598;15.650;2022-09-27T17:02:32;1.35;;;0.30;;
59193;SDS011;44967;48.598;15.650;2022-09-27T17:04:58;1.05;;;0.50;;
59193;SDS011;44967;48.598;15.650;2022-09-27T17:07:24;0.85;;;0.30;;
59193;SDS011;44967;48.598;15.650;2022-09-27T17:09:49;1.52;;;0.32;;
59193;SDS011;44967;48.598;15.650;2022-09-27T17:12:15;0.30;;;0.30;;
59193;SDS011;44967;48.598;15.650;2022-09-27T17:14:41;0.22;;;0.22;;
59193;SDS011;44967;48.598;15.650;2022-09-27T17:17:06;0.25;;;0.20;;
59193;SDS011;44967;48.598;15.650;2022-09-27T17:19:32;0.28;;;0.28;;
59193;SDS011;44967;48.598;15.650;2022-09-27T17:21:58;1.55;;;1.00;;
59193;SDS011;44967;48.598;15.650;2022-09-27T17:24:24;3.10;;;1.52;;
59193;SDS011;44967;48.598;15.650;2022-09-27T17:26:50;2.67;;;0.90;;
59193;SDS011;44967;48.598;15.650;2022-09-27T17:29:16;2.00;;;0.82;;
59193;SDS011;44967;48.598;15.650;2022-09-27T17:31:42;0.30;;;0.30;;
59193;SDS011;44967;48.598;15.650;2022-09-27T17:34:09;1.30;;;0.63;;
59193;SDS011;44967;48.598;15.650;2022-09-27T17:36:37;2.28;;;1.00;;
59193;SDS011;44967;48.598;15.650;2022-09-27T17:39:09;2.28;;;1.30;;
59193;SDS011;44967;48.598;15.650;2022-09-27T17:41:37;4.00;;;1.58;;
59193;SDS011;44967;48.598;15.650;2022-09-27T17:44:03;3.63;;;1.73;;
59193;SDS011;44967;48.598;15.650;2022-09-27T17:46:33;2.17;;;1.35;;
59193;SDS011;44967;48.598;15.650;2022-09-27T17:49:00;3.25;;;1.35;;
59193;SDS011;44967;48.598;15.650;2022-09-27T17:51:46;1.38;;;0.73;;
59193;SDS011;44967;48.598;15.650;2022-09-27T17:54:13;1.73;;;0.80;;
59193;SDS011;44967;48.598;15.650;2022-09-27T17:56:41;1.15;;;0.95;;
59193;SDS011;44967;48.598;15.650;2022-09-27T17:59:08;4.80;;;1.40;;
59193;SDS011;44967;48.598;15.650;2022-09-27T18:01:35;2.63;;;0.70;;